Time;durP1;ratioP1;P1;durP2;ratioP2;P2;SDS_P1;SDS_P2;PMS_P1;PMS_P2;Temp;Humidity;BMP_temperature;BMP_pressure;BME280_temperature;BME280_humidity;BME280_pressure;Samples;Min_cycle;Max_cycle;Signal;HPM_P1;HPM_P2
2021/10/05 00:00:27;;;;;;;7.18;1.70;;;;;;;12.35;88.42;101180.25;6215755;23;20025;-86
2021/10/05 00:02:52;;;;;;;9.50;1.80;;;;;;;12.28;88.74;101173.13;6215642;23;20019;-85
2021/10/05 00:05:18;;;;;;;6.78;1.50;;;;;;;12.20;89.00;101158.91;6215864;23;20421;-83
2021/10/05 00:08:03;;;;;;;4.93;1.70;;;;;;;12.16;88.95;101162.38;6215065;23;20008;-84
2021/10/05 00:10:34;;;;;;;5.70;1.67;;;;;;;12.13;88.73;101158.81;6215344;23;20432;-82
2021/10/05 00:13:00;;;;;;;5.45;1.27;;;;;;;12.13;89.11;101150.91;6216231;23;20427;-82
2021/10/05 00:15:25;;;;;;;8.13;1.45;;;;;;;12.13;89.02;101148.25;6215792;23;20047;-82
2021/10/05 00:17:51;;;;;;;7.07;1.75;;;;;;;12.15;88.76;101143.00;6215394;23;20036;-82
2021/10/05 00:20:17;;;;;;;6.40;1.42;;;;;;;12.14;88.69;101134.22;6215627;23;20020;-83
2021/10/05 00:23:02;;;;;;;5.45;1.30;;;;;;;12.10;88.57;101131.50;6215288;23;20008;-87
2021/10/05 00:25:48;;;;;;;5.28;1.40;;;;;;;12.10;88.45;101127.13;6215661;23;20008;-80
2021/10/05 00:28:13;;;;;;;5.82;2.60;;;;;;;12.10;87.91;101116.56;6215193;23;20012;-86
2021/10/05 00:30:39;;;;;;;10.50;1.48;;;;;;;12.07;88.35;101113.91;6215548;23;20327;-82
2021/10/05 00:33:05;;;;;;;6.43;1.52;;;;;;;12.03;88.33;101114.72;6215461;23;20012;-79
2021/10/05 00:35:30;;;;;;;3.22;1.02;;;;;;;12.02;88.15;101118.22;6217610;23;20020;-78
2021/10/05 00:37:56;;;;;;;6.15;1.10;;;;;;;12.02;87.88;101118.22;6217241;23;20015;-82
2021/10/05 00:40:21;;;;;;;7.18;1.45;;;;;;;12.01;87.91;101115.56;6217373;23;20004;-79
2021/10/05 00:42:47;;;;;;;6.32;1.20;;;;;;;12.00;87.95;101117.28;6217027;23;20020;-81
2021/10/05 00:45:13;;;;;;;6.50;1.40;;;;;;;12.01;87.52;101113.78;6217199;23;20039;-82
2021/10/05 00:47:39;;;;;;;3.58;1.23;;;;;;;12.01;87.58;101119.06;6217180;23;20359;-84
2021/10/05 00:50:06;;;;;;;7.95;1.23;;;;;;;11.97;87.86;101110.22;6218416;23;20063;-81
2021/10/05 00:52:32;;;;;;;5.50;1.35;;;;;;;11.96;87.63;101107.56;6217022;23;20009;-85
2021/10/05 00:54:57;;;;;;;5.72;1.38;;;;;;;11.95;87.45;101104.03;6217752;23;20340;-83
2021/10/05 00:57:23;;;;;;;2.78;1.05;;;;;;;11.95;87.45;101106.69;6216620;23;20012;-82
2021/10/05 00:59:48;;;;;;;4.88;1.15;;;;;;;11.92;87.52;101110.97;6217031;23;20009;-82
2021/10/05 01:02:29;;;;;;;7.88;1.60;;;;;;;11.94;87.43;101109.25;6217052;23;20050;-84
2021/10/05 01:04:55;;;;;;;4.78;1.20;;;;;;;11.88;87.58;101110.06;6217415;23;20008;-85
2021/10/05 01:07:20;;;;;;;3.50;1.20;;;;;;;11.86;87.42;101103.88;6217214;23;20438;-82
2021/10/05 01:09:46;;;;;;;8.65;1.15;;;;;;;11.81;87.61;101106.44;6217217;23;20080;-79
2021/10/05 01:12:32;;;;;;;3.75;1.17;;;;;;;11.77;87.87;101091.44;6216583;23;20001;-81
2021/10/05 01:15:00;;;;;;;2.40;1.00;;;;;;;11.78;87.65;101082.63;6217233;23;20111;-79
2021/10/05 01:17:25;;;;;;;4.38;1.27;;;;;;;11.75;87.75;101079.97;6216712;23;20112;-82
2021/10/05 01:19:51;;;;;;;8.07;1.08;;;;;;;11.77;87.33;101080.91;6217684;23;20422;-81
2021/10/05 01:22:16;;;;;;;4.60;1.00;;;;;;;11.74;87.53;101079.94;6216501;23;20004;-82
2021/10/05 01:24:42;;;;;;;4.55;1.10;;;;;;;11.73;87.59;101079.03;6217159;23;20008;-81
2021/10/05 01:27:08;;;;;;;4.78;1.17;;;;;;;11.72;87.75;101069.38;6216564;23;20083;-82
2021/10/05 01:30:13;;;;;;;4.95;1.10;;;;;;;11.68;87.93;101070.19;6217689;23;20389;-82
2021/10/05 01:32:58;;;;;;;3.13;1.02;;;;;;;11.68;87.72;101064.03;6216756;23;20004;-81
2021/10/05 01:35:24;;;;;;;3.28;1.02;;;;;;;11.70;87.51;101064.94;6217020;23;20013;-79
2021/10/05 01:38:13;;;;;;;5.47;1.20;;;;;;;11.65;87.89;101064.84;6216692;23;20096;-82
2021/10/05 01:40:38;;;;;;;4.75;1.15;;;;;;;11.60;88.05;101062.16;6217417;23;20005;-78
2021/10/05 01:43:04;;;;;;;5.30;1.55;;;;;;;11.58;87.97;101057.72;6216655;23;20331;-84
2021/10/05 01:45:30;;;;;;;4.47;0.93;;;;;;;11.56;88.11;101072.66;6216672;23;20028;-81
2021/10/05 01:47:56;;;;;;;1.98;1.10;;;;;;;11.54;88.19;101071.72;6216431;23;20076;-86
2021/10/05 01:50:21;;;;;;;8.27;2.15;;;;;;;11.53;88.25;101075.22;6217155;23;20427;-81
2021/10/05 01:52:47;;;;;;;9.57;1.30;;;;;;;11.52;88.23;101073.47;6216466;23;20013;-84
2021/10/05 01:55:13;;;;;;;3.28;0.90;;;;;;;11.48;88.56;101068.13;6216324;23;20335;-81
2021/10/05 01:57:38;;;;;;;4.60;1.23;;;;;;;11.47;88.30;101061.06;6216094;23;20009;-84
2021/10/05 02:00:24;;;;;;;8.43;1.13;;;;;;;11.46;88.59;101043.50;6216832;23;20063;-85
2021/10/05 02:02:51;;;;;;;4.30;1.23;;;;;;;11.44;88.52;101037.31;6215287;23;20013;-84
2021/10/05 02:05:17;;;;;;;5.90;1.40;;;;;;;11.41;88.54;101016.19;6216825;23;20035;-86
2021/10/05 02:07:42;;;;;;;6.35;1.20;;;;;;;11.44;88.39;101016.22;6216511;23;20024;-81
2021/10/05 02:10:30;;;;;;;3.47;1.00;;;;;;;11.44;88.24;101013.59;6215978;23;20440;-82
2021/10/05 02:12:56;;;;;;;4.32;1.00;;;;;;;11.41;88.75;101008.28;6216262;23;20142;-82
2021/10/05 02:15:21;;;;;;;4.85;1.05;;;;;;;11.40;88.44;101006.50;6216674;23;20028;-82
2021/10/05 02:17:46;;;;;;;2.35;1.00;;;;;;;11.41;88.65;101003.00;6216598;23;20009;-84
2021/10/05 02:20:12;;;;;;;7.18;1.40;;;;;;;11.39;88.50;100996.81;6216206;23;20013;-85
2021/10/05 02:22:37;;;;;;;5.55;1.15;;;;;;;11.42;88.38;100988.97;6216302;23;20011;-84
2021/10/05 02:25:23;;;;;;;7.60;1.60;;;;;;;11.44;88.48;100992.50;6217067;23;20009;-84
2021/10/05 02:27:48;;;;;;;4.57;1.38;;;;;;;11.43;88.28;100984.59;6219231;23;20006;-80
2021/10/05 02:30:14;;;;;;;3.10;0.90;;;;;;;11.43;88.60;100985.47;6223365;23;20009;-81
2021/10/05 02:32:41;;;;;;;1.50;1.13;;;;;;;11.42;88.36;100973.16;6222905;23;20039;-82
2021/10/05 02:35:08;;;;;;;5.53;1.08;;;;;;;11.39;88.72;100974.88;6221705;23;20032;-84
2021/10/05 02:37:34;;;;;;;5.15;1.33;;;;;;;11.38;88.73;100968.72;6216331;23;20080;-87
2021/10/05 02:40:03;;;;;;;1.23;0.82;;;;;;;11.37;88.84;100964.31;6215962;23;20008;-84
2021/10/05 02:42:29;;;;;;;5.70;1.20;;;;;;;11.38;88.70;100952.91;6216318;23;20008;-80
2021/10/05 02:44:54;;;;;;;3.58;1.10;;;;;;;11.38;89.00;100950.28;6216526;23;20008;-81
2021/10/05 02:47:21;;;;;;;1.98;0.93;;;;;;;11.38;88.83;100947.66;6216965;23;20019;-83
2021/10/05 02:49:47;;;;;;;3.85;0.90;;;;;;;11.38;88.66;100934.47;6216194;23;20043;-84
2021/10/05 02:52:14;;;;;;;11.25;1.45;;;;;;;11.35;88.92;100934.41;6215862;23;20004;-80
2021/10/05 02:55:01;;;;;;;12.75;1.38;;;;;;;11.39;88.61;100927.44;6215105;23;20008;-79
2021/10/05 02:57:27;;;;;;;5.53;1.10;;;;;;;11.39;88.73;100925.69;6215744;23;20094;-85
2021/10/05 02:59:52;;;;;;;7.20;1.30;;;;;;;11.37;88.53;100924.78;6215881;23;20079;-85
2021/10/05 03:02:18;;;;;;;6.03;1.05;;;;;;;11.36;88.76;100920.38;6216083;23;20040;-85
2021/10/05 03:04:44;;;;;;;10.18;1.65;;;;;;;11.32;88.65;100915.94;6188419;23;20429;-85
2021/10/05 03:07:10;;;;;;;5.68;1.05;;;;;;;11.26;89.10;100914.09;6216147;23;20005;-82
2021/10/05 03:09:36;;;;;;;2.33;0.90;;;;;;;11.26;89.28;100914.09;6214204;23;20008;-79
2021/10/05 03:12:03;;;;;;;8.20;1.20;;;;;;;11.23;89.28;100908.78;6216511;23;20011;-80
2021/10/05 03:14:31;;;;;;;3.95;1.08;;;;;;;11.18;90.04;100910.47;6216072;23;20012;-86
2021/10/05 03:16:56;;;;;;;6.75;1.77;;;;;;;11.16;90.11;100901.63;6215821;23;20450;-82
2021/10/05 03:19:22;;;;;;;4.53;1.13;;;;;;;11.09;90.88;100895.38;6216076;23;20000;-82
2021/10/05 03:22:07;;;;;;;3.88;0.88;;;;;;;11.08;91.01;100885.75;6216002;23;20413;-82
2021/10/05 03:24:35;;;;;;;5.07;1.00;;;;;;;11.04;90.95;100886.56;6215832;23;20019;-83
2021/10/05 03:27:00;;;;;;;5.35;1.40;;;;;;;11.02;90.73;100880.38;6216515;23;20012;-83
2021/10/05 03:29:45;;;;;;;5.65;1.40;;;;;;;10.93;91.66;100872.31;6215372;23;20072;-84
2021/10/05 03:32:11;;;;;;;6.47;1.30;;;;;;;10.90;91.56;100867.00;6215138;23;20004;-82
2021/10/05 03:34:36;;;;;;;5.22;1.25;;;;;;;10.88;91.51;100859.09;6215701;23;20417;-83
2021/10/05 03:37:22;;;;;;;5.28;1.10;;;;;;;10.84;91.97;100861.63;6215508;23;20001;-78
2021/10/05 03:39:47;;;;;;;7.97;1.25;;;;;;;10.78;91.83;100852.81;6214572;23;20092;-84
2021/10/05 03:42:13;;;;;;;16.02;1.60;;;;;;;10.74;92.03;100855.34;6215914;23;20443;-81
2021/10/05 03:44:38;;;;;;;4.72;1.00;;;;;;;10.71;92.19;100858.81;6215286;23;20427;-83
2021/10/05 03:47:04;;;;;;;5.65;1.40;;;;;;;10.69;92.32;100855.28;6215554;23;20036;-83
2021/10/05 03:49:29;;;;;;;7.35;1.30;;;;;;;10.67;92.19;100849.09;6215655;23;20001;-80
2021/10/05 03:51:55;;;;;;;8.18;1.45;;;;;;;10.66;92.53;100842.06;6215271;23;20419;-84
2021/10/05 03:54:20;;;;;;;9.85;1.52;;;;;;;10.65;92.78;100848.22;6215837;23;20004;-78
2021/10/05 03:56:46;;;;;;;6.25;1.65;;;;;;;10.64;92.51;100838.53;6215754;23;20000;-81
2021/10/05 03:59:15;;;;;;;7.00;1.52;;;;;;;10.61;92.33;100838.50;6215682;23;20016;-80
2021/10/05 04:01:42;;;;;;;3.58;0.93;;;;;;;10.58;93.02;100830.53;6216564;23;20008;-79
2021/10/05 04:04:27;;;;;;;4.18;0.95;;;;;;;10.55;93.00;100830.47;6215545;23;20032;-82
2021/10/05 04:06:52;;;;;;;5.45;1.00;;;;;;;10.55;93.19;100817.31;6215613;23;20017;-81
2021/10/05 04:09:38;;;;;;;2.33;1.30;;;;;;;10.54;93.23;100805.03;6190083;23;20122;-82
2021/10/05 04:12:04;;;;;;;5.95;1.17;;;;;;;10.49;93.77;100797.06;6217947;23;20008;-79
2021/10/05 04:14:50;;;;;;;4.40;1.00;;;;;;;10.45;94.21;100805.78;6217527;23;20007;-78
2021/10/05 04:17:17;;;;;;;4.90;1.15;;;;;;;10.44;94.14;100804.00;6216917;23;20077;-83
2021/10/05 04:19:45;;;;;;;5.07;1.52;;;;;;;10.42;94.25;100793.44;6217871;23;20076;-81
2021/10/05 04:22:10;;;;;;;4.60;1.20;;;;;;;10.41;94.40;100790.81;6216682;23;20079;-87
2021/10/05 04:24:36;;;;;;;1.88;1.00;;;;;;;10.40;94.45;100786.41;6216724;23;20080;-84
2021/10/05 04:27:04;;;;;;;4.13;1.08;;;;;;;10.40;94.57;100800.41;6217187;23;20031;-81
2021/10/05 04:29:50;;;;;;;5.40;1.13;;;;;;;10.42;94.45;100788.19;6217139;23;20425;-80
2021/10/05 04:32:15;;;;;;;6.13;1.20;;;;;;;10.42;94.45;100785.56;6217500;23;20005;-80
2021/10/05 04:34:43;;;;;;;2.42;0.90;;;;;;;10.42;94.26;100779.44;6217572;23;20119;-83
2021/10/05 04:37:09;;;;;;;3.33;1.50;;;;;;;10.40;94.92;100786.41;6217628;23;20031;-79
2021/10/05 04:39:35;;;;;;;7.40;1.30;;;;;;;10.40;95.05;100782.00;6218140;23;20423;-81
2021/10/05 04:42:01;;;;;;;4.75;1.27;;;;;;;10.40;94.62;100787.28;6217426;23;20009;-83
2021/10/05 04:44:27;;;;;;;5.00;1.00;;;;;;;10.40;94.79;100783.75;6217909;23;20019;-83
2021/10/05 04:46:52;;;;;;;4.50;1.30;;;;;;;10.41;95.27;100785.53;6217747;23;20000;-79
2021/10/05 04:49:18;;;;;;;4.75;1.20;;;;;;;10.41;95.23;100783.78;6217565;23;20458;-85
2021/10/05 04:51:43;;;;;;;6.95;1.40;;;;;;;10.39;95.31;100779.34;6216816;23;20050;-81
2021/10/05 04:54:30;;;;;;;3.17;1.20;;;;;;;10.38;95.40;100770.59;6217577;23;20032;-80
2021/10/05 04:57:01;;;;;;;3.53;1.23;;;;;;;10.38;95.60;100769.72;6217367;23;20431;-85
2021/10/05 04:59:28;;;;;;;3.13;1.10;;;;;;;10.39;95.48;100764.47;6217509;23;20036;-81
2021/10/05 05:02:14;;;;;;;3.50;1.10;;;;;;;10.40;95.61;100767.97;6217103;23;19996;-84
2021/10/05 05:04:39;;;;;;;4.20;1.23;;;;;;;10.40;95.32;100754.84;6217149;23;20015;-81
2021/10/05 05:07:05;;;;;;;5.15;1.20;;;;;;;10.38;95.52;100757.44;6217561;23;20005;-81
2021/10/05 05:09:30;;;;;;;9.88;2.38;;;;;;;10.38;95.66;100757.44;6218514;23;20005;-81
2021/10/05 05:11:56;;;;;;;4.00;1.05;;;;;;;10.36;95.92;100746.00;6218823;23;20011;-84
2021/10/05 05:14:22;;;;;;;3.50;1.20;;;;;;;10.32;96.39;100743.28;6191952;23;20008;-81
2021/10/05 05:16:47;;;;;;;6.35;1.50;;;;;;;10.34;96.27;100741.56;6193493;23;20008;-80
2021/10/05 05:19:13;;;;;;;6.30;1.20;;;;;;;10.30;96.39;100730.97;6223569;23;20027;-80
2021/10/05 05:21:39;;;;;;;4.20;1.73;;;;;;;10.32;96.54;100735.38;6224756;23;20012;-81
2021/10/05 05:24:05;;;;;;;4.50;1.30;;;;;;;10.31;96.86;100729.25;6222059;23;20031;-84
2021/10/05 05:26:51;;;;;;;5.55;1.30;;;;;;;10.28;96.73;100729.19;6217126;23;20431;-84
2021/10/05 05:29:16;;;;;;;4.18;1.42;;;;;;;10.27;96.79;100719.53;6216384;23;20355;-81
2021/10/05 05:31:41;;;;;;;6.88;1.35;;;;;;;10.24;97.27;100716.84;6217467;23;20080;-85
2021/10/05 05:34:07;;;;;;;6.80;1.33;;;;;;;10.24;97.07;100711.59;6217653;23;20009;-81
2021/10/05 05:36:40;;;;;;;4.32;1.25;;;;;;;10.26;97.24;100712.50;6218322;23;20009;-79
2021/10/05 05:39:06;;;;;;;4.97;1.40;;;;;;;10.23;96.92;100699.31;6216295;23;20337;-78
2021/10/05 05:41:31;;;;;;;4.05;1.67;;;;;;;10.24;97.03;100708.94;6217124;23;20009;-79
2021/10/05 05:43:57;;;;;;;2.90;1.38;;;;;;;10.22;97.65;100708.94;6190372;23;20013;-80
2021/10/05 05:46:22;;;;;;;8.38;1.65;;;;;;;10.24;97.62;100708.94;6217822;23;20063;-80
2021/10/05 05:48:47;;;;;;;5.55;1.48;;;;;;;10.23;97.77;100704.56;6216759;23;20023;-78
2021/10/05 05:51:13;;;;;;;5.70;1.80;;;;;;;10.26;97.45;100707.25;6216405;23;20103;-79
2021/10/05 05:53:38;;;;;;;5.93;1.60;;;;;;;10.26;97.46;100709.88;6214861;23;20059;-79
2021/10/05 05:56:04;;;;;;;5.13;1.60;;;;;;;10.25;97.66;100705.47;6216138;23;20000;-78
2021/10/05 05:58:29;;;;;;;6.30;1.70;;;;;;;10.23;97.77;100700.19;6216042;23;20012;-80
2021/10/05 06:00:55;;;;;;;4.75;1.60;;;;;;;10.23;97.49;100704.56;6216056;23;20004;-77
2021/10/05 06:03:40;;;;;;;3.95;1.38;;;;;;;10.26;97.67;100696.72;6216199;23;20005;-78
2021/10/05 06:06:06;;;;;;;3.72;1.42;;;;;;;10.23;97.71;100694.94;6216758;23;20012;-80
2021/10/05 06:08:31;;;;;;;6.93;1.50;;;;;;;10.23;97.60;100683.53;6216065;23;20328;-78
2021/10/05 06:10:57;;;;;;;6.80;1.45;;;;;;;10.23;97.67;100688.81;6180116;23;20005;-79
2021/10/05 06:13:23;;;;;;;4.07;1.40;;;;;;;10.22;97.50;100681.75;6216102;23;20020;-80
2021/10/05 06:16:08;;;;;;;6.00;1.70;;;;;;;10.25;97.56;100666.91;6215138;23;20012;-79
2021/10/05 06:19:04;;;;;;;3.60;1.42;;;;;;;10.27;97.38;100664.31;6216047;23;20009;-77
2021/10/05 06:21:29;;;;;;;3.38;1.40;;;;;;;10.28;97.44;100666.06;6215243;23;20016;-79
2021/10/05 06:23:54;;;;;;;2.05;1.30;;;;;;;10.31;97.37;100663.50;6216441;23;20323;-78
2021/10/05 06:26:20;;;;;;;9.00;1.50;;;;;;;10.33;97.38;100669.66;6216072;23;20008;-78
2021/10/05 06:28:45;;;;;;;3.17;1.25;;;;;;;10.35;97.16;100660.09;6216615;23;20012;-79
2021/10/05 06:31:11;;;;;;;4.30;1.38;;;;;;;10.37;97.19;100660.09;6215448;23;20474;-79
2021/10/05 06:33:37;;;;;;;8.40;1.40;;;;;;;10.39;97.10;100664.53;6214735;23;20016;-78
2021/10/05 06:36:03;;;;;;;5.35;1.50;;;;;;;10.40;96.66;100663.63;6215542;23;20008;-79
2021/10/05 06:38:28;;;;;;;3.88;1.33;;;;;;;10.45;97.22;100659.34;6216264;23;20024;-80
2021/10/05 06:40:54;;;;;;;4.65;1.65;;;;;;;10.49;96.87;100648.88;6215480;23;19999;-78
2021/10/05 06:43:20;;;;;;;7.47;2.42;;;;;;;10.52;96.73;100649.78;6214328;23;20013;-78
2021/10/05 06:45:46;;;;;;;3.55;1.38;;;;;;;10.56;96.83;100638.44;6213997;23;20007;-78
2021/10/05 06:48:12;;;;;;;6.05;1.50;;;;;;;10.62;96.57;100635.00;6215968;23;20000;-79
2021/10/05 06:50:40;;;;;;;3.15;1.35;;;;;;;10.68;96.36;100632.47;6214962;23;20050;-79
2021/10/05 06:53:05;;;;;;;6.65;1.48;;;;;;;10.73;96.31;100625.50;6215836;23;20008;-76
2021/10/05 06:55:32;;;;;;;5.50;1.40;;;;;;;10.79;96.03;100622.06;6215395;23;20008;-81
2021/10/05 06:58:17;;;;;;;6.82;1.30;;;;;;;10.86;95.84;100623.03;6214726;23;20471;-78
2021/10/05 07:00:43;;;;;;;9.10;1.50;;;;;;;10.92;95.59;100623.06;6214426;23;20009;-80
2021/10/05 07:03:08;;;;;;;2.50;1.17;;;;;;;10.99;95.53;100618.75;6211376;23;20466;-82
2021/10/05 07:05:36;;;;;;;5.10;1.35;;;;;;;11.04;95.31;100607.44;6213244;23;20000;-78
2021/10/05 07:08:08;;;;;;;5.80;1.42;;;;;;;11.11;94.78;100611.91;6212913;23;20209;-79
2021/10/05 07:10:54;;;;;;;8.27;1.38;;;;;;;11.14;94.71;100601.38;6208889;23;20424;-79
2021/10/05 07:13:20;;;;;;;3.72;1.13;;;;;;;11.17;94.79;100594.41;6210836;23;20060;-83
2021/10/05 07:15:45;;;;;;;5.00;1.30;;;;;;;11.19;94.68;100588.28;6213151;23;20028;-77
2021/10/05 07:18:11;;;;;;;8.73;1.55;;;;;;;11.28;94.40;100584.84;6211396;23;20078;-78
2021/10/05 07:20:36;;;;;;;6.25;1.17;;;;;;;11.31;94.27;100584.84;6210968;23;20598;-81
2021/10/05 07:23:03;;;;;;;4.55;1.75;;;;;;;11.35;94.05;100576.13;6212480;23;20309;-78
2021/10/05 07:25:30;;;;;;;8.10;1.60;;;;;;;11.41;94.09;100570.03;6212807;23;20024;-81
2021/10/05 07:28:16;;;;;;;3.80;1.42;;;;;;;11.47;93.81;100572.72;6210606;23;20349;-83
2021/10/05 07:30:43;;;;;;;4.47;1.42;;;;;;;11.52;93.78;100572.78;6212978;23;20005;-81
2021/10/05 07:33:14;;;;;;;7.75;1.45;;;;;;;11.58;94.03;100575.44;6213131;23;20024;-83
2021/10/05 07:35:39;;;;;;;2.17;1.02;;;;;;;11.60;93.76;100561.41;6213371;23;20412;-82
2021/10/05 07:38:05;;;;;;;1.73;1.17;;;;;;;11.68;93.86;100564.13;6213573;23;20011;-81
2021/10/05 07:40:50;;;;;;;3.67;1.50;;;;;;;11.76;92.88;100554.50;6214117;23;20015;-78
2021/10/05 07:43:16;;;;;;;6.65;2.08;;;;;;;11.79;93.31;100545.75;6211949;23;20009;-86
2021/10/05 07:46:01;;;;;;;4.68;1.40;;;;;;;11.87;92.91;100543.13;6185563;23;20008;-78
2021/10/05 07:48:46;;;;;;;3.53;1.35;;;;;;;11.93;93.11;100543.19;6214161;23;20011;-79
2021/10/05 07:51:12;;;;;;;6.40;1.55;;;;;;;11.97;92.76;100535.31;6214608;23;20011;-77
2021/10/05 07:53:38;;;;;;;4.25;1.33;;;;;;;12.03;92.47;100518.69;6214252;23;20007;-80
2021/10/05 07:56:07;;;;;;;4.22;1.33;;;;;;;12.11;92.02;100518.69;6214764;23;20009;-81
2021/10/05 07:58:33;;;;;;;6.47;2.13;;;;;;;12.17;92.21;100512.56;6214940;23;20024;-81
2021/10/05 08:00:59;;;;;;;4.65;1.27;;;;;;;12.24;91.57;100501.19;6183276;23;20135;-83
2021/10/05 08:03:24;;;;;;;5.45;1.67;;;;;;;12.35;90.75;100503.88;6216619;23;20415;-83
2021/10/05 08:05:50;;;;;;;6.85;1.02;;;;;;;12.45;89.45;100493.34;6214866;23;20074;-77
2021/10/05 08:08:15;;;;;;;4.60;1.05;;;;;;;12.52;89.28;100474.88;6187190;23;20076;-82
2021/10/05 08:11:00;;;;;;;6.30;1.10;;;;;;;12.63;88.40;100465.25;6218936;23;20138;-82
2021/10/05 08:13:32;;;;;;;2.90;1.20;;;;;;;12.69;88.45;100461.72;6219201;23;20024;-80
2021/10/05 08:15:57;;;;;;;11.50;1.50;;;;;;;12.74;88.75;100466.13;6219994;23;20004;-83
2021/10/05 08:18:23;;;;;;;5.00;1.40;;;;;;;12.82;88.01;100453.81;6214693;23;20159;-82
2021/10/05 08:20:52;;;;;;;3.65;1.23;;;;;;;12.92;87.66;100453.81;6214205;23;20009;-81
2021/10/05 08:23:37;;;;;;;5.40;1.27;;;;;;;13.00;87.75;100465.28;6214329;23;20008;-79
2021/10/05 08:26:03;;;;;;;8.48;1.25;;;;;;;13.12;87.57;100454.72;6214181;23;20012;-80
2021/10/05 08:28:28;;;;;;;6.55;1.20;;;;;;;13.29;86.65;100443.25;6215307;23;20053;-77
2021/10/05 08:30:54;;;;;;;5.43;1.45;;;;;;;13.60;85.46;100456.44;6213379;23;20387;-82
2021/10/05 08:33:19;;;;;;;5.57;1.50;;;;;;;13.91;83.98;100443.16;6215242;23;20032;-83
2021/10/05 08:35:48;;;;;;;6.18;1.25;;;;;;;14.14;82.07;100428.03;6213646;23;20008;-81
2021/10/05 08:38:13;;;;;;;2.55;0.90;;;;;;;14.35;81.84;100428.81;6188193;23;20301;-83
2021/10/05 08:40:39;;;;;;;4.38;1.23;;;;;;;14.49;80.70;100424.31;6214164;23;20011;-79
2021/10/05 08:43:24;;;;;;;6.35;1.17;;;;;;;14.73;80.31;100434.78;6213586;23;20054;-83
2021/10/05 08:45:50;;;;;;;4.93;1.60;;;;;;;14.85;78.70;100429.38;6214017;23;20005;-80
2021/10/05 08:48:36;;;;;;;7.88;1.23;;;;;;;14.88;78.54;100423.19;6214718;23;20071;-81
2021/10/05 08:51:04;;;;;;;3.47;1.15;;;;;;;14.83;77.67;100407.34;6215479;23;19997;-77
2021/10/05 08:53:31;;;;;;;3.88;1.05;;;;;;;14.84;78.51;100420.56;6212735;23;20012;-84
2021/10/05 08:56:16;;;;;;;5.20;1.00;;;;;;;14.82;77.87;100405.59;6214403;23;20017;-79
2021/10/05 08:58:42;;;;;;;6.25;1.35;;;;;;;14.73;79.13;100395.97;6216018;23;20012;-80
2021/10/05 09:01:11;;;;;;;5.03;1.00;;;;;;;14.76;78.65;100392.38;6215349;23;20016;-84
2021/10/05 09:03:38;;;;;;;3.20;1.23;;;;;;;14.84;77.99;100390.56;6216525;23;20004;-80
2021/10/05 09:06:14;;;;;;;4.95;0.93;;;;;;;14.92;77.55;100393.13;6217396;23;20011;-83
2021/10/05 09:09:04;;;;;;;6.00;1.00;;;;;;;14.93;77.47;100385.16;6215699;23;20435;-80
2021/10/05 09:11:47;;;;;;;10.40;1.25;;;;;;;14.98;77.81;100375.41;6217001;23;20004;-82
2021/10/05 09:14:36;;;;;;;4.40;1.48;;;;;;;15.05;77.74;100380.69;6216385;23;20386;-88
2021/10/05 09:17:01;;;;;;;4.95;1.08;;;;;;;15.09;77.44;100385.91;6215528;23;20015;-77
2021/10/05 09:19:27;;;;;;;2.40;1.00;;;;;;;15.07;77.30;100382.41;6216231;23;20040;-82
2021/10/05 09:21:53;;;;;;;2.67;1.08;;;;;;;15.08;76.78;100378.84;6189478;23;20008;-84
2021/10/05 09:25:05;;;;;;;5.93;1.02;;;;;;;15.13;76.75;100386.78;6215259;23;20483;-80
2021/10/05 09:27:30;;;;;;;2.95;0.90;;;;;;;15.05;76.06;100378.88;6215567;23;20024;-82
2021/10/05 09:29:56;;;;;;;3.95;0.90;;;;;;;15.05;77.00;100389.50;6190929;23;20020;-83
2021/10/05 09:32:46;;;;;;;3.95;1.00;;;;;;;14.97;76.41;100386.03;6215295;23;20001;-81
2021/10/05 09:35:11;;;;;;;5.35;1.05;;;;;;;14.90;76.95;100369.31;6214929;23;20451;-82
2021/10/05 09:37:37;;;;;;;4.20;0.98;;;;;;;14.91;77.15;100383.47;6216210;23;20013;-79
2021/10/05 09:40:28;;;;;;;7.60;1.00;;;;;;;14.94;77.27;100375.47;6216679;23;20098;-80
2021/10/05 09:42:53;;;;;;;4.30;1.10;;;;;;;15.02;77.81;100373.63;6213154;23;20096;-81
2021/10/05 09:45:24;;;;;;;4.45;0.88;;;;;;;15.14;77.03;100368.22;6215883;23;20331;-85
2021/10/05 09:48:08;;;;;;;5.25;1.17;;;;;;;15.31;76.75;100369.81;6213987;23;20067;-78
2021/10/05 09:50:36;;;;;;;5.78;1.08;;;;;;;15.38;75.88;100365.31;6213300;23;20446;-83
2021/10/05 09:53:12;;;;;;;3.22;1.17;;;;;;;15.45;75.48;100354.63;6213151;23;20443;-80
2021/10/05 09:55:59;;;;;;;2.30;0.90;;;;;;;15.54;75.71;100366.03;6214731;23;20025;-85
2021/10/05 09:58:25;;;;;;;5.50;1.15;;;;;;;15.70;75.33;100362.28;6213458;23;20020;-80
2021/10/05 10:00:51;;;;;;;3.22;0.80;;;;;;;15.76;74.93;100363.97;6215432;23;20007;-80
2021/10/05 10:03:36;;;;;;;3.42;0.90;;;;;;;15.74;73.83;100361.34;6216289;23;20009;-82
2021/10/05 10:06:02;;;;;;;4.13;0.95;;;;;;;15.62;74.34;100340.28;6214348;23;20262;-82
2021/10/05 10:08:31;;;;;;;6.50;1.10;;;;;;;15.56;75.46;100345.66;6189688;23;20491;-81
2021/10/05 10:10:57;;;;;;;7.53;1.30;;;;;;;15.61;75.01;100344.72;6216608;23;20012;-83
2021/10/05 10:13:47;;;;;;;2.90;1.17;;;;;;;15.66;75.02;100334.91;6217041;23;20304;-81
2021/10/05 10:16:14;;;;;;;5.30;1.35;;;;;;;15.69;74.69;100334.00;6216165;23;20014;-81
2021/10/05 10:19:08;;;;;;;6.35;1.45;;;;;;;15.62;74.78;100321.72;6215990;23;20012;-82
2021/10/05 10:22:05;;;;;;;3.53;0.98;;;;;;;15.51;75.44;100328.03;6215961;23;20331;-81
2021/10/05 10:24:43;;;;;;;2.92;1.13;;;;;;;15.52;75.04;100327.13;6215216;23;20013;-78
2021/10/05 10:27:10;;;;;;;2.30;0.95;;;;;;;15.46;75.90;100313.97;6212889;23;20013;-82
2021/10/05 10:29:36;;;;;;;4.90;1.20;;;;;;;15.44;75.31;100323.69;6213665;23;20066;-82
2021/10/05 10:32:15;;;;;;;7.20;1.00;;;;;;;15.36;76.38;100319.41;6215408;23;20015;-84
2021/10/05 10:34:45;;;;;;;2.17;1.10;;;;;;;15.29;77.02;100322.09;6214429;23;20079;-82
2021/10/05 10:37:12;;;;;;;5.68;1.05;;;;;;;15.25;77.97;100319.53;6216854;23;20012;-79
2021/10/05 10:39:59;;;;;;;5.95;1.45;;;;;;;15.15;79.07;100327.56;6216266;23;20038;-81
2021/10/05 10:42:29;;;;;;;4.72;1.20;;;;;;;15.11;78.59;100322.28;6215985;23;20058;-78
2021/10/05 10:44:56;;;;;;;5.45;1.30;;;;;;;15.13;79.76;100318.75;6214402;23;20292;-78
2021/10/05 10:47:23;;;;;;;4.78;1.20;;;;;;;15.28;79.53;100311.53;6214450;23;20076;-80
2021/10/05 10:49:58;;;;;;;8.10;1.30;;;;;;;15.55;78.50;100298.84;6216335;23;20004;-82
2021/10/05 10:52:32;;;;;;;3.83;1.23;;;;;;;15.76;77.43;100295.91;6211243;23;20008;-81
2021/10/05 10:54:58;;;;;;;3.50;1.00;;;;;;;15.84;76.24;100291.41;6215474;23;20076;-82
2021/10/05 10:57:41;;;;;;;5.03;1.10;;;;;;;15.78;76.25;100295.88;6211849;23;20343;-78
2021/10/05 11:00:38;;;;;;;8.60;1.42;;;;;;;15.47;76.85;100286.53;6215151;23;20031;-79
2021/10/05 11:03:07;;;;;;;2.58;0.90;;;;;;;15.33;78.85;100299.09;6197673;23;20005;-77
2021/10/05 11:05:35;;;;;;;3.90;1.27;;;;;;;15.27;79.35;100296.50;6219672;23;20343;-80
2021/10/05 11:08:09;;;;;;;5.00;1.10;;;;;;;15.15;79.85;100295.75;6219898;23;20080;-81
2021/10/05 11:10:35;;;;;;;3.08;1.10;;;;;;;15.01;81.28;100300.31;6204311;23;20343;-82
2021/10/05 11:13:05;;;;;;;3.58;1.15;;;;;;;14.69;84.52;100305.94;6216253;23;20124;-81
2021/10/05 11:15:31;;;;;;;5.45;1.50;;;;;;;14.46;86.43;100301.66;6213865;23;20404;-77
2021/10/05 11:18:19;;;;;;;5.28;1.30;;;;;;;14.16;88.56;100312.50;6211048;23;20005;-82
2021/10/05 11:20:57;;;;;;;4.68;1.20;;;;;;;13.97;90.88;100324.06;6212780;23;20097;-82
2021/10/05 11:23:25;;;;;;;3.13;1.48;;;;;;;13.69;94.21;100321.59;6212738;23;20030;-82
2021/10/05 11:26:14;;;;;;;7.57;1.67;;;;;;;13.45;96.21;100317.28;6211144;23;20035;-83
2021/10/05 11:28:45;;;;;;;8.60;1.85;;;;;;;13.28;98.21;100314.63;6213522;23;20038;-82
2021/10/05 11:31:12;;;;;;;8.90;1.63;;;;;;;13.22;98.41;100315.53;6211930;23;20039;-88
2021/10/05 11:34:32;;;;;;;6.50;1.85;;;;;;;13.19;99.23;100306.78;6213337;23;20339;-84
2021/10/05 11:37:02;;;;;;;6.55;2.22;;;;;;;13.12;99.91;100301.50;6204791;23;20012;-84
2021/10/05 11:39:37;;;;;;;5.85;2.08;;;;;;;13.12;100.00;100293.56;6212852;23;20012;-87